Time;durP1;ratioP1;P1;durP2;ratioP2;P2;SDS_P1;SDS_P2;PMS_P1;PMS_P2;Temp;Humidity;BMP_temperature;BMP_pressure;BME280_temperature;BME280_humidity;BME280_pressure;Samples;Min_cycle;Max_cycle;Signal;HPM_P1;HPM_P2
2022/07/27 00:00:45;;;;;;;21.83;9.95;;;;;;;;;;10581396;28;20107;-73
2022/07/27 00:05:45;;;;;;;14.18;9.45;;;;;;;;;;10580791;28;20024;-73
2022/07/27 00:10:45;;;;;;;13.18;9.45;;;;;;;;;;10580943;28;20016;-73
2022/07/27 00:15:45;;;;;;;18.38;10.50;;;;;;;;;;10580610;28;20019;-73
2022/07/27 00:20:46;;;;;;;15.43;9.80;;;;;;;;;;10580358;28;20102;-73
2022/07/27 00:25:46;;;;;;;15.40;10.80;;;;;;;;;;10580601;28;20023;-73
2022/07/27 00:30:46;;;;;;;14.15;9.93;;;;;;;;;;10580176;28;20110;-73
2022/07/27 00:35:46;;;;;;;14.60;10.43;;;;;;;;;;10579575;28;20016;-73
2022/07/27 00:40:47;;;;;;;16.70;10.65;;;;;;;;;;10579554;28;20027;-74
2022/07/27 00:45:47;;;;;;;15.15;9.93;;;;;;;;;;10579240;28;20047;-73
2022/07/27 00:50:47;;;;;;;13.40;10.63;;;;;;;;;;10579250;28;20016;-73
2022/07/27 00:55:47;;;;;;;15.68;10.60;;;;;;;;;;10578987;28;20024;-73
2022/07/27 01:00:48;;;;;;;16.20;10.90;;;;;;;;;;10578952;28;20019;-75
2022/07/27 01:05:48;;;;;;;30.63;11.63;;;;;;;;;;10578643;28;20055;-73
2022/07/27 01:10:49;;;;;;;16.80;10.52;;;;;;;;;;10579732;28;20019;-73
2022/07/27 01:15:50;;;;;;;19.92;11.82;;;;;;;;;;10578432;28;20023;-73
2022/07/27 01:20:50;;;;;;;17.30;11.55;;;;;;;;;;10561257;28;20219;-73
2022/07/27 01:25:51;;;;;;;16.05;11.55;;;;;;;;;;10577814;28;20234;-73
2022/07/27 01:30:51;;;;;;;16.38;10.98;;;;;;;;;;10577782;28;20026;-73
2022/07/27 01:35:53;;;;;;;13.73;10.03;;;;;;;;;;10577750;28;20404;-75
2022/07/27 01:40:53;;;;;;;18.33;12.40;;;;;;;;;;10577496;28;20047;-73
2022/07/27 01:45:54;;;;;;;16.90;11.20;;;;;;;;;;10577162;28;20071;-73
2022/07/27 01:50:55;;;;;;;16.65;11.25;;;;;;;;;;10576616;28;20304;-74
2022/07/27 01:55:55;;;;;;;17.63;11.75;;;;;;;;;;10576954;28;20449;-73
2022/07/27 02:00:55;;;;;;;15.18;10.93;;;;;;;;;;10560090;28;20016;-73
2022/07/27 02:05:55;;;;;;;14.90;10.70;;;;;;;;;;10576886;28;20050;-73
2022/07/27 02:16:15;;;;;;;21.20;11.40;;;;;;;;;;10578027;28;20024;-73
2022/07/27 02:21:16;;;;;;;17.02;11.13;;;;;;;;;;10576708;28;20012;-73
2022/07/27 02:26:16;;;;;;;18.83;10.68;;;;;;;;;;10576311;28;20024;-73
2022/07/27 02:31:16;;;;;;;20.08;12.30;;;;;;;;;;10577408;28;20110;-73
2022/07/27 02:36:16;;;;;;;16.98;11.55;;;;;;;;;;10576117;28;20016;-73
2022/07/27 02:41:17;;;;;;;13.87;10.43;;;;;;;;;;10576091;28;20042;-73
2022/07/27 02:46:17;;;;;;;16.40;11.13;;;;;;;;;;10575774;28;20554;-73
2022/07/27 02:51:17;;;;;;;15.13;11.23;;;;;;;;;;10575878;28;20359;-73
2022/07/27 02:56:17;;;;;;;15.77;11.05;;;;;;;;;;10575717;28;20035;-73
2022/07/27 03:01:18;;;;;;;17.95;11.15;;;;;;;;;;10581450;28;20030;-73
2022/07/27 03:06:18;;;;;;;20.67;11.40;;;;;;;;;;10583661;28;20120;-74
2022/07/27 03:11:18;;;;;;;17.45;12.10;;;;;;;;;;10583213;28;20016;-73
2022/07/27 03:16:18;;;;;;;17.90;12.30;;;;;;;;;;10583015;28;20024;-73
2022/07/27 03:21:19;;;;;;;17.25;11.05;;;;;;;;;;10582787;28;20485;-73
2022/07/27 03:26:19;;;;;;;19.88;12.75;;;;;;;;;;10582612;28;20024;-73
2022/07/27 03:31:19;;;;;;;17.25;12.35;;;;;;;;;;10582319;28;20110;-73
2022/07/27 03:36:20;;;;;;;17.85;11.52;;;;;;;;;;10582205;28;20024;-73
2022/07/27 03:41:20;;;;;;;17.83;11.73;;;;;;;;;;10583341;28;20072;-74
2022/07/27 03:46:21;;;;;;;18.35;10.80;;;;;;;;;;10581705;28;20068;-75
2022/07/27 03:51:21;;;;;;;17.83;11.15;;;;;;;;;;10581317;28;20016;-73
2022/07/27 03:56:22;;;;;;;18.63;11.95;;;;;;;;;;10581248;28;20026;-73
2022/07/27 04:01:22;;;;;;;21.05;12.20;;;;;;;;;;10580963;28;20023;-73
2022/07/27 04:06:22;;;;;;;18.67;11.57;;;;;;;;;;10564468;28;20047;-74
2022/07/27 04:11:22;;;;;;;22.75;11.27;;;;;;;;;;10581463;28;20106;-73
2022/07/27 04:16:23;;;;;;;20.20;12.20;;;;;;;;;;10580493;28;20023;-74
2022/07/27 04:21:23;;;;;;;17.65;11.38;;;;;;;;;;10580213;28;20023;-73
2022/07/27 04:26:23;;;;;;;26.60;12.95;;;;;;;;;;10579959;28;20048;-73
2022/07/27 04:31:24;;;;;;;16.98;11.18;;;;;;;;;;10580029;28;20016;-73
2022/07/27 04:36:24;;;;;;;17.17;11.65;;;;;;;;;;10579502;28;20031;-75
2022/07/27 04:41:24;;;;;;;21.63;11.85;;;;;;;;;;10579122;28;20019;-73
2022/07/27 04:46:25;;;;;;;21.13;11.55;;;;;;;;;;10578804;28;20039;-73
2022/07/27 04:51:26;;;;;;;21.98;10.35;;;;;;;;;;10578694;28;20020;-73
2022/07/27 04:56:26;;;;;;;15.38;9.27;;;;;;;;;;10578577;28;20077;-73
2022/07/27 05:01:26;;;;;;;16.52;9.70;;;;;;;;;;10578330;28;20020;-73
2022/07/27 05:06:26;;;;;;;12.40;9.20;;;;;;;;;;10578457;28;20503;-75
2022/07/27 05:11:27;;;;;;;19.70;9.43;;;;;;;;;;10578127;28;20020;-75
2022/07/27 05:16:27;;;;;;;15.18;9.07;;;;;;;;;;10577397;28;20484;-73
2022/07/27 05:21:28;;;;;;;18.48;8.95;;;;;;;;;;10576719;28;20023;-73
2022/07/27 05:26:28;;;;;;;19.42;10.40;;;;;;;;;;10577010;28;20051;-73
2022/07/27 05:31:28;;;;;;;22.25;11.02;;;;;;;;;;10577264;28;20019;-73
2022/07/27 05:36:28;;;;;;;25.65;11.73;;;;;;;;;;10578437;28;20102;-75
2022/07/27 05:41:29;;;;;;;21.52;11.32;;;;;;;;;;10578422;28;20020;-75
2022/07/27 05:46:32;;;;;;;18.70;10.82;;;;;;;;;;10576624;28;20096;-74
2022/07/27 05:51:32;;;;;;;20.60;12.65;;;;;;;;;;10576590;28;20032;-75
2022/07/27 05:56:34;;;;;;;17.85;10.73;;;;;;;;;;10576345;28;20020;-74
2022/07/27 06:01:34;;;;;;;21.17;11.73;;;;;;;;;;10576344;28;20103;-74
2022/07/27 06:11:53;;;;;;;13.23;9.50;;;;;;;;;;10578341;28;20023;-74
2022/07/27 06:16:54;;;;;;;14.20;8.40;;;;;;;;;;10559288;28;20039;-73
2022/07/27 06:21:54;;;;;;;14.35;8.45;;;;;;;;;;10577657;28;20028;-75
2022/07/27 06:26:54;;;;;;;13.48;8.38;;;;;;;;;;10576047;28;20027;-74
2022/07/27 06:31:54;;;;;;;12.38;7.97;;;;;;;;;;10575916;28;20028;-74
2022/07/27 06:36:57;;;;;;;18.27;7.80;;;;;;;;;;10583339;28;20114;-74
2022/07/27 06:41:57;;;;;;;16.98;6.55;;;;;;;;;;10585400;27;20030;-74
2022/07/27 06:46:57;;;;;;;11.95;5.25;;;;;;;;;;10609151;27;20481;-75
2022/07/27 06:51:57;;;;;;;12.15;5.43;;;;;;;;;;10609480;27;20031;-74
2022/07/27 06:56:58;;;;;;;12.75;5.22;;;;;;;;;;10627638;27;20036;-75
2022/07/27 07:01:58;;;;;;;13.35;6.05;;;;;;;;;;10627376;27;20159;-74
2022/07/27 07:07:00;;;;;;;13.55;5.30;;;;;;;;;;10627172;27;20127;-74
2022/07/27 07:12:01;;;;;;;10.30;5.25;;;;;;;;;;10608459;27;20110;-75
2022/07/27 07:17:01;;;;;;;10.27;4.90;;;;;;;;;;10608382;27;20015;-74
2022/07/27 07:22:01;;;;;;;11.73;5.90;;;;;;;;;;10608305;27;20015;-73
2022/07/27 07:27:02;;;;;;;12.93;5.50;;;;;;;;;;10608001;27;20019;-74
2022/07/27 07:32:02;;;;;;;10.27;5.13;;;;;;;;;;10626024;27;20022;-74
2022/07/27 07:37:02;;;;;;;12.68;5.32;;;;;;;;;;10607616;27;20023;-74
2022/07/27 07:42:02;;;;;;;11.93;4.90;;;;;;;;;;10607020;27;20464;-75
2022/07/27 07:47:03;;;;;;;13.90;5.15;;;;;;;;;;10588857;27;20508;-74
2022/07/27 07:52:04;;;;;;;10.85;4.40;;;;;;;;;;10607177;27;20490;-74
2022/07/27 07:57:04;;;;;;;19.57;5.03;;;;;;;;;;10586771;27;20102;-79
2022/07/27 08:02:04;;;;;;;7.43;4.40;;;;;;;;;;10603973;27;20258;-75
2022/07/27 08:07:05;;;;;;;12.77;4.50;;;;;;;;;;10581412;27;20023;-79
2022/07/27 08:12:05;;;;;;;6.67;3.73;;;;;;;;;;10586191;27;20034;-76
2022/07/27 08:17:05;;;;;;;6.47;4.03;;;;;;;;;;10571705;28;20051;-77
2022/07/27 08:22:06;;;;;;;7.30;3.92;;;;;;;;;;10576668;27;20019;-76
2022/07/27 08:27:06;;;;;;;6.97;4.18;;;;;;;;;;10581053;27;20034;-78
2022/07/27 08:32:06;;;;;;;10.90;4.07;;;;;;;;;;10575020;27;20480;-75
2022/07/27 08:37:06;;;;;;;4.90;3.63;;;;;;;;;;10577377;27;20026;-77
2022/07/27 08:42:08;;;;;;;13.07;4.82;;;;;;;;;;10582017;27;20020;-77
2022/07/27 08:47:09;;;;;;;10.35;3.75;;;;;;;;;;10572288;27;20095;-75
2022/07/27 08:52:10;;;;;;;5.20;3.97;;;;;;;;;;10575877;27;20507;-75
2022/07/27 08:57:10;;;;;;;6.85;3.63;;;;;;;;;;10575254;27;20058;-77
2022/07/27 09:02:12;;;;;;;7.70;4.15;;;;;;;;;;10572635;27;20522;-75
2022/07/27 09:07:25;;;;;;;8.98;4.20;;;;;;;;;;10571827;27;20096;-76
2022/07/27 09:12:26;;;;;;;6.68;3.80;;;;;;;;;;10575978;27;20015;-79
2022/07/27 09:17:26;;;;;;;11.57;4.78;;;;;;;;;;10576637;27;20139;-79
2022/07/27 09:22:51;;;;;;;7.93;4.13;;;;;;;;;;10577489;27;20251;-80
2022/07/27 09:27:57;;;;;;;13.10;5.60;;;;;;;;;;10523174;23;20351;-80
2022/07/27 09:32:58;;;;;;;5.97;3.47;;;;;;;;;;10517948;28;20020;-78
2022/07/27 09:38:17;;;;;;;6.22;4.00;;;;;;;;;;10506625;28;20060;-74
2022/07/27 09:43:18;;;;;;;7.82;4.28;;;;;;;;;;10514971;28;20023;-73
2022/07/27 09:48:19;;;;;;;9.20;4.67;;;;;;;;;;10507883;28;20036;-78
2022/07/27 09:53:21;;;;;;;9.80;3.88;;;;;;;;;;10479047;28;20032;-78
2022/07/27 09:58:36;;;;;;;6.45;3.88;;;;;;;;;;10465513;28;20303;-73
2022/07/27 10:03:37;;;;;;;7.63;4.00;;;;;;;;;;10490785;28;20024;-80
2022/07/27 10:08:39;;;;;;;10.80;4.38;;;;;;;;;;10484327;28;20153;-75
2022/07/27 10:13:40;;;;;;;7.13;4.00;;;;;;;;;;10503971;28;20028;-75
2022/07/27 10:18:52;;;;;;;7.50;3.88;;;;;;;;;;10484130;28;20442;-74
2022/07/27 10:23:57;;;;;;;12.43;3.78;;;;;;;;;;10501056;28;20498;-82
2022/07/27 10:28:59;;;;;;;9.50;3.42;;;;;;;;;;10490685;28;20052;-76
2022/07/27 10:34:01;;;;;;;3.90;3.28;;;;;;;;;;10492567;28;20029;-80
2022/07/27 10:39:03;;;;;;;7.85;3.85;;;;;;;;;;10479875;28;20047;-78
2022/07/27 10:44:21;;;;;;;5.57;4.00;;;;;;;;;;10487388;28;20036;-75
2022/07/27 10:49:23;;;;;;;5.28;3.20;;;;;;;;;;10493090;28;20485;-75
2022/07/27 10:54:26;;;;;;;10.77;3.88;;;;;;;;;;10493779;28;20027;-74
2022/07/27 10:59:39;;;;;;;15.93;4.60;;;;;;;;;;10506918;28;20107;-80
2022/07/27 11:04:46;;;;;;;4.20;3.28;;;;;;;;;;10488061;28;20032;-75
2022/07/27 11:09:47;;;;;;;8.80;3.78;;;;;;;;;;10484154;28;20016;-75
2022/07/27 11:14:49;;;;;;;7.60;4.15;;;;;;;;;;10496060;28;20078;-74
2022/07/27 11:19:52;;;;;;;8.88;4.75;;;;;;;;;;10489092;28;20115;-76
2022/07/27 11:24:52;;;;;;;8.07;4.85;;;;;;;;;;10485415;28;20083;-74
2022/07/27 11:29:53;;;;;;;9.45;5.70;;;;;;;;;;10498301;28;20063;-74
2022/07/27 11:34:53;;;;;;;8.67;5.67;;;;;;;;;;10487234;28;20017;-75
2022/07/27 11:39:57;;;;;;;6.53;5.37;;;;;;;;;;10496507;28;20551;-74
2022/07/27 11:44:59;;;;;;;13.75;6.50;;;;;;;;;;10487604;28;20498;-81
2022/07/27 11:50:07;;;;;;;9.32;5.50;;;;;;;;;;10496158;28;20020;-78
2022/07/27 11:55:07;;;;;;;9.30;5.80;;;;;;;;;;10506554;28;20062;-74
2022/07/27 12:00:08;;;;;;;9.93;6.30;;;;;;;;;;10492375;28;20033;-79
2022/07/27 12:05:09;;;;;;;10.75;6.43;;;;;;;;;;10487146;28;20585;-81
2022/07/27 12:10:10;;;;;;;10.40;5.93;;;;;;;;;;10492866;28;20023;-79
2022/07/27 12:15:14;;;;;;;11.68;5.95;;;;;;;;;;10490623;28;20017;-77
2022/07/27 12:20:15;;;;;;;8.30;5.72;;;;;;;;;;10488158;28;20115;-77
2022/07/27 12:25:16;;;;;;;10.35;5.50;;;;;;;;;;10489997;28;20048;-78
2022/07/27 12:30:16;;;;;;;8.27;5.75;;;;;;;;;;10505491;28;20024;-77
2022/07/27 12:35:22;;;;;;;11.73;5.93;;;;;;;;;;10494955;28;20553;-74
2022/07/27 12:40:22;;;;;;;9.43;4.97;;;;;;;;;;10491004;28;20029;-79
2022/07/27 12:45:27;;;;;;;6.90;4.80;;;;;;;;;;10492097;28;20020;-78
2022/07/27 12:50:27;;;;;;;7.88;5.45;;;;;;;;;;10500799;28;20255;-79
2022/07/27 12:55:28;;;;;;;7.07;5.37;;;;;;;;;;10504248;28;20028;-77
2022/07/27 13:00:29;;;;;;;18.30;5.70;;;;;;;;;;10510529;28;20032;-81
2022/07/27 13:05:30;;;;;;;9.95;6.03;;;;;;;;;;10497579;28;20020;-79
2022/07/27 13:10:30;;;;;;;10.15;5.32;;;;;;;;;;10500319;28;20111;-78
2022/07/27 13:15:31;;;;;;;14.17;6.50;;;;;;;;;;10498215;28;20044;-73
2022/07/27 13:20:31;;;;;;;9.23;5.33;;;;;;;;;;10494987;28;20116;-77
2022/07/27 13:25:31;;;;;;;7.17;6.03;;;;;;;;;;10494340;28;20293;-79
2022/07/27 13:30:32;;;;;;;9.73;5.70;;;;;;;;;;10497332;28;20024;-74
2022/07/27 13:35:32;;;;;;;8.35;5.78;;;;;;;;;;10502293;28;20520;-78
2022/07/27 13:40:32;;;;;;;6.90;6.10;;;;;;;;;;10502226;28;20028;-73
2022/07/27 13:45:33;;;;;;;7.05;5.40;;;;;;;;;;10501785;28;20115;-80
2022/07/27 13:50:33;;;;;;;8.73;5.97;;;;;;;;;;10501072;28;20025;-75
2022/07/27 13:55:34;;;;;;;8.63;5.95;;;;;;;;;;10504444;28;20016;-79
2022/07/27 14:00:34;;;;;;;7.05;5.60;;;;;;;;;;10494257;28;20018;-79
2022/07/27 14:05:35;;;;;;;11.07;5.25;;;;;;;;;;10496010;28;20029;-77
2022/07/27 14:10:40;;;;;;;10.65;6.28;;;;;;;;;;10484759;28;20383;-77
2022/07/27 14:15:42;;;;;;;8.77;5.00;;;;;;;;;;10500440;28;20474;-77
2022/07/27 14:20:42;;;;;;;12.43;5.68;;;;;;;;;;10480616;28;20034;-79
2022/07/27 14:25:42;;;;;;;7.57;5.80;;;;;;;;;;10486496;28;20540;-80
2022/07/27 14:30:43;;;;;;;8.70;5.73;;;;;;;;;;10492377;28;20021;-81
2022/07/27 14:35:43;;;;;;;6.45;5.40;;;;;;;;;;10496511;28;20567;-73
2022/07/27 14:40:44;;;;;;;8.23;6.50;;;;;;;;;;10493614;28;20066;-80
2022/07/27 14:45:46;;;;;;;10.85;6.20;;;;;;;;;;10495945;28;20120;-79
2022/07/27 14:50:46;;;;;;;9.52;6.50;;;;;;;;;;10496136;28;20054;-82
2022/07/27 14:55:46;;;;;;;7.43;4.20;;;;;;;;;;10499994;28;20024;-79
2022/07/27 15:00:47;;;;;;;13.57;5.15;;;;;;;;;;10509545;28;20115;-78
2022/07/27 15:05:47;;;;;;;18.93;7.27;;;;;;;;;;10505067;28;20524;-77
2022/07/27 15:10:47;;;;;;;14.55;5.25;;;;;;;;;;10508231;28;20020;-79
2022/07/27 15:15:49;;;;;;;11.37;5.10;;;;;;;;;;10502795;28;20031;-74
2022/07/27 15:20:49;;;;;;;10.00;5.85;;;;;;;;;;10494069;28;20055;-79
2022/07/27 15:25:50;;;;;;;16.97;4.27;;;;;;;;;;10501860;28;20191;-79
2022/07/27 15:30:50;;;;;;;7.00;5.00;;;;;;;;;;10508693;28;20441;-78
2022/07/27 15:35:50;;;;;;;9.70;5.07;;;;;;;;;;10504662;28;20050;-74
2022/07/27 15:40:50;;;;;;;13.90;4.93;;;;;;;;;;10504172;28;20024;-78
2022/07/27 15:45:51;;;;;;;10.55;5.28;;;;;;;;;;10501212;28;20031;-79
2022/07/27 15:50:52;;;;;;;10.77;4.65;;;;;;;;;;10509159;28;20027;-78
2022/07/27 15:55:52;;;;;;;9.85;6.10;;;;;;;;;;10503302;28;20048;-74
2022/07/27 16:00:54;;;;;;;14.97;6.47;;;;;;;;;;10499136;28;20028;-73
2022/07/27 16:05:54;;;;;;;8.00;5.13;;;;;;;;;;10487062;28;20370;-77
2022/07/27 16:10:55;;;;;;;11.98;5.57;;;;;;;;;;10503162;28;20169;-79
2022/07/27 16:21:14;;;;;;;10.43;5.72;;;;;;;;;;10499337;28;20020;-78
2022/07/27 16:26:14;;;;;;;19.35;6.65;;;;;;;;;;10501582;28;20060;-76
2022/07/27 16:31:17;;;;;;;10.73;4.93;;;;;;;;;;10503563;28;20459;-80
2022/07/27 16:36:18;;;;;;;7.30;5.25;;;;;;;;;;10498887;28;20291;-78
2022/07/27 16:41:20;;;;;;;9.02;4.82;;;;;;;;;;10499132;28;20036;-78
2022/07/27 16:46:20;;;;;;;7.82;4.57;;;;;;;;;;10506782;28;20020;-79
2022/07/27 16:51:20;;;;;;;6.80;4.10;;;;;;;;;;10496982;28;20020;-79
2022/07/27 16:56:21;;;;;;;7.25;3.88;;;;;;;;;;10492833;28;20493;-79
2022/07/27 17:01:21;;;;;;;9.82;4.45;;;;;;;;;;10499356;28;20506;-80
2022/07/27 17:06:21;;;;;;;12.20;4.90;;;;;;;;;;10499453;28;20028;-74
2022/07/27 17:11:22;;;;;;;7.38;3.83;;;;;;;;;;10501621;28;20019;-74
2022/07/27 17:16:22;;;;;;;6.40;3.77;;;;;;;;;;10501377;28;20024;-77
2022/07/27 17:21:22;;;;;;;7.47;3.80;;;;;;;;;;10498162;28;20021;-73
2022/07/27 17:26:23;;;;;;;8.98;4.18;;;;;;;;;;10504929;28;20063;-74
2022/07/27 17:31:23;;;;;;;6.03;3.90;;;;;;;;;;10500660;28;20486;-74
2022/07/27 17:36:24;;;;;;;12.50;3.90;;;;;;;;;;10502263;28;20028;-74
2022/07/27 17:41:25;;;;;;;17.35;5.47;;;;;;;;;;10501257;28;20052;-77
2022/07/27 17:46:25;;;;;;;12.35;5.03;;;;;;;;;;10500975;28;20473;-75
2022/07/27 17:51:25;;;;;;;18.30;7.57;;;;;;;;;;10503063;28;20026;-78
2022/07/27 17:56:27;;;;;;;15.10;6.68;;;;;;;;;;10498229;28;20037;-77
2022/07/27 18:01:28;;;;;;;19.63;10.43;;;;;;;;;;10490989;28;20493;-77
2022/07/27 18:06:28;;;;;;;13.80;6.05;;;;;;;;;;10504766;28;20032;-78
2022/07/27 18:11:29;;;;;;;10.40;5.65;;;;;;;;;;10497049;28;20036;-74
2022/07/27 18:16:29;;;;;;;12.73;6.78;;;;;;;;;;10496082;28;20040;-75
2022/07/27 18:21:29;;;;;;;9.40;5.63;;;;;;;;;;10503075;28;20032;-78
2022/07/27 18:26:29;;;;;;;12.35;6.32;;;;;;;;;;10501083;28;20048;-78
2022/07/27 18:31:30;;;;;;;9.50;6.53;;;;;;;;;;10502156;28;20123;-74
2022/07/27 18:36:32;;;;;;;10.95;6.90;;;;;;;;;;10500928;28;20031;-75
2022/07/27 18:41:33;;;;;;;9.57;6.32;;;;;;;;;;10504619;28;20028;-74
2022/07/27 18:46:33;;;;;;;10.38;6.75;;;;;;;;;;10499496;28;20035;-74
2022/07/27 18:51:33;;;;;;;13.18;6.15;;;;;;;;;;10491602;28;20023;-74
2022/07/27 18:56:34;;;;;;;10.68;6.25;;;;;;;;;;10502607;28;20025;-78
2022/07/27 19:01:34;;;;;;;11.23;6.55;;;;;;;;;;10497014;28;20077;-77
2022/07/27 19:06:34;;;;;;;11.47;6.57;;;;;;;;;;10499924;28;20346;-73
2022/07/27 19:11:35;;;;;;;15.17;7.10;;;;;;;;;;10499789;28;20028;-74
2022/07/27 19:16:35;;;;;;;16.83;7.03;;;;;;;;;;10491706;28;20069;-77
2022/07/27 19:21:35;;;;;;;14.18;7.70;;;;;;;;;;10501840;28;20024;-74
2022/07/27 19:26:36;;;;;;;14.40;7.47;;;;;;;;;;10493068;28;20056;-79
2022/07/27 19:31:36;;;;;;;12.88;6.75;;;;;;;;;;10509702;28;20048;-76
2022/07/27 19:36:37;;;;;;;11.10;6.22;;;;;;;;;;10502335;28;20024;-80
2022/07/27 19:41:37;;;;;;;12.20;6.00;;;;;;;;;;10496116;28;20103;-79
2022/07/27 19:46:37;;;;;;;8.40;6.25;;;;;;;;;;10498960;28;20339;-79
2022/07/27 19:51:37;;;;;;;11.82;5.75;;;;;;;;;;10501125;28;20047;-77
2022/07/27 19:56:38;;;;;;;10.68;6.13;;;;;;;;;;10508118;28;20047;-75
2022/07/27 20:01:38;;;;;;;9.40;6.82;;;;;;;;;;10500595;28;20028;-77
2022/07/27 20:06:39;;;;;;;10.10;5.50;;;;;;;;;;10496980;28;20028;-74
2022/07/27 20:11:39;;;;;;;12.20;7.22;;;;;;;;;;10511130;28;20032;-74
2022/07/27 20:16:40;;;;;;;9.07;5.63;;;;;;;;;;10496752;28;20028;-74
2022/07/27 20:21:40;;;;;;;12.13;6.70;;;;;;;;;;10501455;28;20059;-74
2022/07/27 20:26:41;;;;;;;10.75;6.63;;;;;;;;;;10496666;28;20039;-80
2022/07/27 20:31:41;;;;;;;9.95;5.82;;;;;;;;;;10494641;28;20016;-78
2022/07/27 20:36:42;;;;;;;13.70;6.68;;;;;;;;;;10495200;28;20035;-75
2022/07/27 20:41:42;;;;;;;9.37;5.93;;;;;;;;;;10490537;28;20177;-78
2022/07/27 20:46:42;;;;;;;11.38;7.38;;;;;;;;;;10492177;28;20016;-79
2022/07/27 20:51:43;;;;;;;9.50;6.35;;;;;;;;;;10499855;28;20013;-79
2022/07/27 20:56:43;;;;;;;10.43;6.63;;;;;;;;;;10483153;28;20020;-78
2022/07/27 21:01:43;;;;;;;13.57;6.72;;;;;;;;;;10481236;28;20024;-79
2022/07/27 21:06:44;;;;;;;14.45;7.40;;;;;;;;;;10491762;28;20091;-79
2022/07/27 21:11:44;;;;;;;14.73;6.32;;;;;;;;;;10494338;28;20012;-76
2022/07/27 21:16:44;;;;;;;9.97;5.73;;;;;;;;;;10497011;28;20103;-73
2022/07/27 21:21:45;;;;;;;9.25;6.82;;;;;;;;;;10500285;28;20384;-77
2022/07/27 21:26:47;;;;;;;8.85;6.72;;;;;;;;;;10495862;28;20173;-78
2022/07/27 21:31:48;;;;;;;11.88;6.45;;;;;;;;;;10506167;28;20024;-79
2022/07/27 21:36:48;;;;;;;9.48;6.53;;;;;;;;;;10502324;28;20028;-73
2022/07/27 21:41:48;;;;;;;13.95;6.78;;;;;;;;;;10497767;28;20510;-76
2022/07/27 21:46:51;;;;;;;9.95;6.60;;;;;;;;;;10501659;28;20024;-74
2022/07/27 21:51:51;;;;;;;12.20;6.78;;;;;;;;;;10502802;28;20020;-75
2022/07/27 21:56:52;;;;;;;12.35;6.75;;;;;;;;;;10496295;28;20473;-73
2022/07/27 22:01:52;;;;;;;12.27;7.25;;;;;;;;;;10505420;28;20476;-74
2022/07/27 22:06:52;;;;;;;12.57;6.53;;;;;;;;;;10498995;28;20135;-74
2022/07/27 22:11:53;;;;;;;9.07;5.93;;;;;;;;;;10491835;28;20133;-74
2022/07/27 22:16:53;;;;;;;9.32;6.10;;;;;;;;;;10499938;28;20025;-74
2022/07/27 22:21:53;;;;;;;9.77;5.60;;;;;;;;;;10505770;28;20036;-74
2022/07/27 22:26:54;;;;;;;7.93;5.23;;;;;;;;;;10499039;28;20040;-75
2022/07/27 22:31:54;;;;;;;9.73;5.43;;;;;;;;;;10501452;28;20426;-74
2022/07/27 22:36:54;;;;;;;10.43;4.93;;;;;;;;;;10499478;28;20033;-74
2022/07/27 22:41:54;;;;;;;8.00;5.20;;;;;;;;;;10503001;28;20576;-74
2022/07/27 22:46:55;;;;;;;8.35;5.15;;;;;;;;;;10501446;28;20112;-74
2022/07/27 22:51:55;;;;;;;9.43;4.83;;;;;;;;;;10480553;28;20023;-74
2022/07/27 22:56:55;;;;;;;13.25;5.88;;;;;;;;;;10485977;28;20020;-74
2022/07/27 23:01:55;;;;;;;9.50;5.00;;;;;;;;;;10487864;28;20017;-75
2022/07/27 23:06:56;;;;;;;14.45;7.00;;;;;;;;;;10487827;28;20024;-75
2022/07/27 23:11:56;;;;;;;14.52;5.75;;;;;;;;;;10482039;28;20093;-75
2022/07/27 23:16:56;;;;;;;8.82;5.53;;;;;;;;;;10451428;28;20083;-75
2022/07/27 23:21:57;;;;;;;10.32;5.82;;;;;;;;;;10455222;28;20031;-76
2022/07/27 23:26:57;;;;;;;6.90;5.03;;;;;;;;;;10454660;28;20110;-75
2022/07/27 23:31:57;;;;;;;11.53;5.57;;;;;;;;;;10494311;28;20044;-74
2022/07/27 23:36:58;;;;;;;8.80;5.03;;;;;;;;;;10475568;28;20029;-82
2022/07/27 23:41:58;;;;;;;10.75;5.07;;;;;;;;;;10460124;28;20113;-75
2022/07/27 23:46:58;;;;;;;12.85;6.00;;;;;;;;;;10496755;28;20028;-75
2022/07/27 23:51:59;;;;;;;16.60;9.27;;;;;;;;;;10485420;28;20032;-76
2022/07/27 23:56:59;;;;;;;19.80;8.43;;;;;;;;;;10453741;28;20696;-76
